sensor_id;sensor_type;location;lat;lon;timestamp;temperature;humidity
20081;DHT22;10200;49.232;9.222;2023-10-19T00:00:35;12.50;99.90
20081;DHT22;10200;49.232;9.222;2023-10-19T00:03:02;12.50;99.90
20081;DHT22;10200;49.232;9.222;2023-10-19T00:05:31;12.50;99.90
20081;DHT22;10200;49.232;9.222;2023-10-19T00:08:01;12.40;99.90
20081;DHT22;10200;49.232;9.222;2023-10-19T00:10:31;12.50;99.90
20081;DHT22;10200;49.232;9.222;2023-10-19T00:13:03;12.50;99.90
20081;DHT22;10200;49.232;9.222;2023-10-19T00:15:34;12.40;99.90
20081;DHT22;10200;49.232;9.222;2023-10-19T00:18:03;12.40;99.90
20081;DHT22;10200;49.232;9.222;2023-10-19T00:20:48;12.40;99.90
20081;DHT22;10200;49.232;9.222;2023-10-19T00:23:17;12.40;99.90
20081;DHT22;10200;49.232;9.222;2023-10-19T00:25:53;12.40;99.90
20081;DHT22;10200;49.232;9.222;2023-10-19T00:28:19;12.40;99.90
20081;DHT22;10200;49.232;9.222;2023-10-19T00:30:44;12.40;99.90
20081;DHT22;10200;49.232;9.222;2023-10-19T00:33:15;12.40;99.90
20081;DHT22;10200;49.232;9.222;2023-10-19T00:35:46;12.40;99.90
20081;DHT22;10200;49.232;9.222;2023-10-19T00:38:47;12.40;99.90
20081;DHT22;10200;49.232;9.222;2023-10-19T00:41:21;12.40;99.90
20081;DHT22;10200;49.232;9.222;2023-10-19T00:43:49;12.40;99.90
20081;DHT22;10200;49.232;9.222;2023-10-19T00:46:16;12.40;99.90
20081;DHT22;10200;49.232;9.222;2023-10-19T00:51:16;12.40;99.90
20081;DHT22;10200;49.232;9.222;2023-10-19T00:53:58;12.40;99.90
20081;DHT22;10200;49.232;9.222;2023-10-19T00:56:25;12.40;99.90
20081;DHT22;10200;49.232;9.222;2023-10-19T00:58:58;12.50;99.90
20081;DHT22;10200;49.232;9.222;2023-10-19T01:01:40;12.50;99.90
20081;DHT22;10200;49.232;9.222;2023-10-19T01:04:12;12.50;99.90
20081;DHT22;10200;49.232;9.222;2023-10-19T01:06:46;12.50;99.90
20081;DHT22;10200;49.232;9.222;2023-10-19T01:09:27;12.50;99.90
20081;DHT22;10200;49.232;9.222;2023-10-19T01:11:53;12.50;99.90
20081;DHT22;10200;49.232;9.222;2023-10-19T01:14:22;12.50;99.90
20081;DHT22;10200;49.232;9.222;2023-10-19T01:16:53;12.50;99.90
20081;DHT22;10200;49.232;9.222;2023-10-19T01:19:22;12.50;99.90
20081;DHT22;10200;49.232;9.222;2023-10-19T01:21:49;12.50;99.90
20081;DHT22;10200;49.232;9.222;2023-10-19T01:24:19;12.50;99.90
20081;DHT22;10200;49.232;9.222;2023-10-19T01:26:52;12.50;99.90
20081;DHT22;10200;49.232;9.222;2023-10-19T01:29:19;12.50;99.90
20081;DHT22;10200;49.232;9.222;2023-10-19T01:31:51;12.50;99.90
20081;DHT22;10200;49.232;9.222;2023-10-19T01:34:32;12.50;99.90
20081;DHT22;10200;49.232;9.222;2023-10-19T01:36:59;12.50;99.90
20081;DHT22;10200;49.232;9.222;2023-10-19T01:39:29;12.50;99.90
20081;DHT22;10200;49.232;9.222;2023-10-19T01:41:54;12.50;99.90
20081;DHT22;10200;49.232;9.222;2023-10-19T01:44:20;12.50;99.90
20081;DHT22;10200;49.232;9.222;2023-10-19T01:46:46;12.50;99.90
20081;DHT22;10200;49.232;9.222;2023-10-19T01:49:13;12.50;99.90
20081;DHT22;10200;49.232;9.222;2023-10-19T01:51:39;12.60;99.90
20081;DHT22;10200;49.232;9.222;2023-10-19T01:54:08;12.60;99.90
20081;DHT22;10200;49.232;9.222;2023-10-19T01:56:34;12.60;99.90
20081;DHT22;10200;49.232;9.222;2023-10-19T01:59:04;12.60;99.90
20081;DHT22;10200;49.232;9.222;2023-10-19T02:01:31;12.60;99.90
20081;DHT22;10200;49.232;9.222;2023-10-19T02:04:03;12.60;99.90
20081;DHT22;10200;49.232;9.222;2023-10-19T02:06:30;12.50;99.90
20081;DHT22;10200;49.232;9.222;2023-10-19T02:11:27;12.50;99.90
20081;DHT22;10200;49.232;9.222;2023-10-19T02:13:56;12.50;99.90
20081;DHT22;10200;49.232;9.222;2023-10-19T02:16:26;12.50;99.90
20081;DHT22;10200;49.232;9.222;2023-10-19T02:18:55;12.50;99.90
20081;DHT22;10200;49.232;9.222;2023-10-19T02:21:20;12.50;99.90
20081;DHT22;10200;49.232;9.222;2023-10-19T02:23:56;12.50;99.90
20081;DHT22;10200;49.232;9.222;2023-10-19T02:26:23;12.50;99.90
20081;DHT22;10200;49.232;9.222;2023-10-19T02:28:51;12.50;99.90
20081;DHT22;10200;49.232;9.222;2023-10-19T02:31:17;12.50;99.90
20081;DHT22;10200;49.232;9.222;2023-10-19T02:33:51;12.50;99.90
20081;DHT22;10200;49.232;9.222;2023-10-19T02:36:18;12.50;99.90
20081;DHT22;10200;49.232;9.222;2023-10-19T02:38:45;12.50;99.90
20081;DHT22;10200;49.232;9.222;2023-10-19T02:41:15;12.50;99.90
20081;DHT22;10200;49.232;9.222;2023-10-19T02:43:41;12.50;99.90
20081;DHT22;10200;49.232;9.222;2023-10-19T02:46:11;12.50;99.90
20081;DHT22;10200;49.232;9.222;2023-10-19T02:48:39;12.50;99.90
20081;DHT22;10200;49.232;9.222;2023-10-19T02:51:10;12.50;99.90
20081;DHT22;10200;49.232;9.222;2023-10-19T02:53:37;12.60;99.90
20081;DHT22;10200;49.232;9.222;2023-10-19T02:56:14;12.60;99.90
20081;DHT22;10200;49.232;9.222;2023-10-19T02:58:43;12.60;99.90
20081;DHT22;10200;49.232;9.222;2023-10-19T03:01:13;12.60;99.90
20081;DHT22;10200;49.232;9.222;2023-10-19T03:03:42;12.60;99.90
20081;DHT22;10200;49.232;9.222;2023-10-19T03:06:09;12.60;99.90
20081;DHT22;10200;49.232;9.222;2023-10-19T03:08:35;12.60;99.90
20081;DHT22;10200;49.232;9.222;2023-10-19T03:11:01;12.60;99.90
20081;DHT22;10200;49.232;9.222;2023-10-19T03:13:30;12.60;99.90
20081;DHT22;10200;49.232;9.222;2023-10-19T03:16:01;12.60;99.90
20081;DHT22;10200;49.232;9.222;2023-10-19T03:18:31;12.60;99.90
20081;DHT22;10200;49.232;9.222;2023-10-19T03:20:57;12.60;99.90
20081;DHT22;10200;49.232;9.222;2023-10-19T03:23:23;12.60;99.90
20081;DHT22;10200;49.232;9.222;2023-10-19T03:25:54;12.60;99.90
20081;DHT22;10200;49.232;9.222;2023-10-19T03:28:38;12.60;99.90
20081;DHT22;10200;49.232;9.222;2023-10-19T03:31:06;12.60;99.90
20081;DHT22;10200;49.232;9.222;2023-10-19T03:33:32;12.60;99.90
20081;DHT22;10200;49.232;9.222;2023-10-19T03:36:01;12.60;99.90
20081;DHT22;10200;49.232;9.222;2023-10-19T03:38:28;12.50;99.90
20081;DHT22;10200;49.232;9.222;2023-10-19T03:40:59;12.60;99.90
20081;DHT22;10200;49.232;9.222;2023-10-19T03:43:32;12.50;99.90
20081;DHT22;10200;49.232;9.222;2023-10-19T03:45:58;12.50;99.90
20081;DHT22;10200;49.232;9.222;2023-10-19T03:48:24;12.50;99.90
20081;DHT22;10200;49.232;9.222;2023-10-19T03:50:55;12.60;99.90
20081;DHT22;10200;49.232;9.222;2023-10-19T03:53:22;12.60;99.90
20081;DHT22;10200;49.232;9.222;2023-10-19T03:55:49;12.60;99.90
20081;DHT22;10200;49.232;9.222;2023-10-19T03:58:18;12.60;99.90
20081;DHT22;10200;49.232;9.222;2023-10-19T04:00:48;12.60;99.90
20081;DHT22;10200;49.232;9.222;2023-10-19T04:03:15;12.60;99.90
20081;DHT22;10200;49.232;9.222;2023-10-19T04:05:45;12.70;99.90
20081;DHT22;10200;49.232;9.222;2023-10-19T04:08:13;12.60;99.90
20081;DHT22;10200;49.232;9.222;2023-10-19T04:10:40;12.60;99.90
20081;DHT22;10200;49.232;9.222;2023-10-19T04:13:11;12.70;99.90
20081;DHT22;10200;49.232;9.222;2023-10-19T04:15:36;12.70;99.90
20081;DHT22;10200;49.232;9.222;2023-10-19T04:18:06;12.70;99.90
20081;DHT22;10200;49.232;9.222;2023-10-19T04:20:35;12.70;99.90
20081;DHT22;10200;49.232;9.222;2023-10-19T04:23:16;12.70;99.90
20081;DHT22;10200;49.232;9.222;2023-10-19T04:25:41;12.70;99.90
20081;DHT22;10200;49.232;9.222;2023-10-19T04:28:07;12.70;99.90
20081;DHT22;10200;49.232;9.222;2023-10-19T04:30:34;12.70;99.90
20081;DHT22;10200;49.232;9.222;2023-10-19T04:33:02;12.70;99.90
20081;DHT22;10200;49.232;9.222;2023-10-19T04:35:28;12.70;99.90
20081;DHT22;10200;49.232;9.222;2023-10-19T04:37:59;12.70;99.90
20081;DHT22;10200;49.232;9.222;2023-10-19T04:40:26;12.70;99.90
20081;DHT22;10200;49.232;9.222;2023-10-19T04:42:53;12.70;99.90
20081;DHT22;10200;49.232;9.222;2023-10-19T04:45:20;12.70;99.90
20081;DHT22;10200;49.232;9.222;2023-10-19T04:47:45;12.70;99.90
20081;DHT22;10200;49.232;9.222;2023-10-19T04:50:12;12.70;99.90
20081;DHT22;10200;49.232;9.222;2023-10-19T04:52:38;12.70;99.90
20081;DHT22;10200;49.232;9.222;2023-10-19T04:55:04;12.70;99.90
20081;DHT22;10200;49.232;9.222;2023-10-19T04:57:30;12.60;99.90
20081;DHT22;10200;49.232;9.222;2023-10-19T04:59:56;12.60;99.90
20081;DHT22;10200;49.232;9.222;2023-10-19T05:02:23;12.50;99.90
20081;DHT22;10200;49.232;9.222;2023-10-19T05:04:48;12.50;99.90
20081;DHT22;10200;49.232;9.222;2023-10-19T05:07:14;12.50;99.90
20081;DHT22;10200;49.232;9.222;2023-10-19T05:09:43;12.40;99.90
20081;DHT22;10200;49.232;9.222;2023-10-19T05:12:09;12.30;99.90
20081;DHT22;10200;49.232;9.222;2023-10-19T05:14:36;12.20;99.90
20081;DHT22;10200;49.232;9.222;2023-10-19T05:17:03;12.20;99.90
20081;DHT22;10200;49.232;9.222;2023-10-19T05:19:33;12.20;99.90
20081;DHT22;10200;49.232;9.222;2023-10-19T05:22:04;12.10;99.90
20081;DHT22;10200;49.232;9.222;2023-10-19T05:24:29;12.10;99.90
20081;DHT22;10200;49.232;9.222;2023-10-19T05:26:56;12.10;99.90
20081;DHT22;10200;49.232;9.222;2023-10-19T05:29:22;12.10;99.90
20081;DHT22;10200;49.232;9.222;2023-10-19T05:31:50;12.10;99.90
20081;DHT22;10200;49.232;9.222;2023-10-19T05:34:22;12.00;99.90
20081;DHT22;10200;49.232;9.222;2023-10-19T05:36:48;12.00;99.90
20081;DHT22;10200;49.232;9.222;2023-10-19T05:39:17;12.00;99.90
20081;DHT22;10200;49.232;9.222;2023-10-19T05:41:42;12.00;99.90
20081;DHT22;10200;49.232;9.222;2023-10-19T05:44:08;12.00;99.90
20081;DHT22;10200;49.232;9.222;2023-10-19T05:46:34;11.90;99.90
20081;DHT22;10200;49.232;9.222;2023-10-19T05:49:00;11.90;99.90
20081;DHT22;10200;49.232;9.222;2023-10-19T05:51:29;11.90;99.90
20081;DHT22;10200;49.232;9.222;2023-10-19T05:53:55;11.90;99.90
20081;DHT22;10200;49.232;9.222;2023-10-19T05:56:27;11.90;99.90
20081;DHT22;10200;49.232;9.222;2023-10-19T05:58:53;11.80;99.90
20081;DHT22;10200;49.232;9.222;2023-10-19T06:01:19;11.90;99.90
20081;DHT22;10200;49.232;9.222;2023-10-19T06:03:45;11.90;99.90
20081;DHT22;10200;49.232;9.222;2023-10-19T06:06:11;11.90;99.90
20081;DHT22;10200;49.232;9.222;2023-10-19T06:08:36;11.90;99.90
20081;DHT22;10200;49.232;9.222;2023-10-19T06:11:02;11.90;99.90
20081;DHT22;10200;49.232;9.222;2023-10-19T06:13:28;11.90;99.90
20081;DHT22;10200;49.232;9.222;2023-10-19T06:15:54;11.90;99.90
20081;DHT22;10200;49.232;9.222;2023-10-19T06:18:21;11.90;99.90
20081;DHT22;10200;49.232;9.222;2023-10-19T06:20:46;12.00;99.90
20081;DHT22;10200;49.232;9.222;2023-10-19T06:23:13;12.00;99.90
20081;DHT22;10200;49.232;9.222;2023-10-19T06:25:39;12.00;99.90
20081;DHT22;10200;49.232;9.222;2023-10-19T06:28:05;12.00;99.90
20081;DHT22;10200;49.232;9.222;2023-10-19T06:30:31;12.00;99.90
20081;DHT22;10200;49.232;9.222;2023-10-19T06:32:58;12.00;99.90
20081;DHT22;10200;49.232;9.222;2023-10-19T06:35:27;12.00;99.90
20081;DHT22;10200;49.232;9.222;2023-10-19T06:37:54;12.00;99.90
20081;DHT22;10200;49.232;9.222;2023-10-19T06:40:24;12.00;99.90
20081;DHT22;10200;49.232;9.222;2023-10-19T06:42:52;12.00;99.90
20081;DHT22;10200;49.232;9.222;2023-10-19T06:45:20;12.00;99.90
20081;DHT22;10200;49.232;9.222;2023-10-19T06:47:48;12.00;99.90
20081;DHT22;10200;49.232;9.222;2023-10-19T06:50:15;12.10;99.90
20081;DHT22;10200;49.232;9.222;2023-10-19T06:52:42;12.10;99.90
20081;DHT22;10200;49.232;9.222;2023-10-19T06:55:09;12.10;99.90
20081;DHT22;10200;49.232;9.222;2023-10-19T06:58:04;12.10;99.90
20081;DHT22;10200;49.232;9.222;2023-10-19T07:00:30;12.20;99.90
20081;DHT22;10200;49.232;9.222;2023-10-19T07:02:57;12.20;99.90
20081;DHT22;10200;49.232;9.222;2023-10-19T07:05:26;12.20;99.90
20081;DHT22;10200;49.232;9.222;2023-10-19T07:07:55;12.20;99.90
20081;DHT22;10200;49.232;9.222;2023-10-19T07:10:23;12.20;99.90
20081;DHT22;10200;49.232;9.222;2023-10-19T07:12:53;12.20;99.90
20081;DHT22;10200;49.232;9.222;2023-10-19T07:15:19;12.30;99.90
20081;DHT22;10200;49.232;9.222;2023-10-19T07:17:46;12.30;99.90
20081;DHT22;10200;49.232;9.222;2023-10-19T07:20:15;12.40;99.90
20081;DHT22;10200;49.232;9.222;2023-10-19T07:23:10;12.50;99.90
20081;DHT22;10200;49.232;9.222;2023-10-19T07:25:44;12.60;99.90
20081;DHT22;10200;49.232;9.222;2023-10-19T07:28:13;12.70;99.90
20081;DHT22;10200;49.232;9.222;2023-10-19T07:30:40;12.90;99.90
20081;DHT22;10200;49.232;9.222;2023-10-19T07:33:10;12.90;99.90
20081;DHT22;10200;49.232;9.222;2023-10-19T07:35:37;12.90;99.90
20081;DHT22;10200;49.232;9.222;2023-10-19T07:38:04;12.90;99.90
20081;DHT22;10200;49.232;9.222;2023-10-19T07:40:32;12.90;99.90
20081;DHT22;10200;49.232;9.222;2023-10-19T07:42:58;12.80;99.90
20081;DHT22;10200;49.232;9.222;2023-10-19T07:45:25;12.80;99.90
20081;DHT22;10200;49.232;9.222;2023-10-19T07:47:51;12.80;99.90
20081;DHT22;10200;49.232;9.222;2023-10-19T07:50:17;12.80;99.90
20081;DHT22;10200;49.232;9.222;2023-10-19T07:52:43;12.90;99.90
20081;DHT22;10200;49.232;9.222;2023-10-19T07:55:13;12.90;99.90
20081;DHT22;10200;49.232;9.222;2023-10-19T07:57:39;13.00;99.90
20081;DHT22;10200;49.232;9.222;2023-10-19T08:00:08;13.10;99.90
20081;DHT22;10200;49.232;9.222;2023-10-19T08:02:35;13.20;99.90
20081;DHT22;10200;49.232;9.222;2023-10-19T08:05:01;13.30;99.90
20081;DHT22;10200;49.232;9.222;2023-10-19T08:07:28;13.50;99.90
20081;DHT22;10200;49.232;9.222;2023-10-19T08:09:54;13.50;99.90
20081;DHT22;10200;49.232;9.222;2023-10-19T08:12:20;13.60;99.90
20081;DHT22;10200;49.232;9.222;2023-10-19T08:14:48;13.60;99.90
20081;DHT22;10200;49.232;9.222;2023-10-19T08:17:14;13.70;99.90
20081;DHT22;10200;49.232;9.222;2023-10-19T08:19:39;13.80;99.90
20081;DHT22;10200;49.232;9.222;2023-10-19T08:22:06;13.80;99.90
20081;DHT22;10200;49.232;9.222;2023-10-19T08:24:32;13.90;99.90
20081;DHT22;10200;49.232;9.222;2023-10-19T08:27:01;14.00;99.90
20081;DHT22;10200;49.232;9.222;2023-10-19T08:29:26;14.10;99.90
20081;DHT22;10200;49.232;9.222;2023-10-19T08:31:52;14.30;99.90
20081;DHT22;10200;49.232;9.222;2023-10-19T08:34:17;14.40;99.90
20081;DHT22;10200;49.232;9.222;2023-10-19T08:36:44;14.50;99.90
20081;DHT22;10200;49.232;9.222;2023-10-19T08:39:10;14.80;99.90
20081;DHT22;10200;49.232;9.222;2023-10-19T08:41:39;15.30;99.90
20081;DHT22;10200;49.232;9.222;2023-10-19T08:44:07;15.90;99.90
20081;DHT22;10200;49.232;9.222;2023-10-19T08:46:39;16.40;99.90
20081;DHT22;10200;49.232;9.222;2023-10-19T08:49:05;16.70;99.90
20081;DHT22;10200;49.232;9.222;2023-10-19T08:51:35;17.00;99.90
20081;DHT22;10200;49.232;9.222;2023-10-19T08:54:01;17.00;99.90
20081;DHT22;10200;49.232;9.222;2023-10-19T08:56:27;16.80;99.90
20081;DHT22;10200;49.232;9.222;2023-10-19T08:58:53;16.60;99.90
20081;DHT22;10200;49.232;9.222;2023-10-19T09:01:20;16.50;99.90
20081;DHT22;10200;49.232;9.222;2023-10-19T09:03:49;16.40;99.90
20081;DHT22;10200;49.232;9.222;2023-10-19T09:06:15;16.30;99.90
20081;DHT22;10200;49.232;9.222;2023-10-19T09:08:41;16.30;99.90
20081;DHT22;10200;49.232;9.222;2023-10-19T09:11:07;16.40;99.90
20081;DHT22;10200;49.232;9.222;2023-10-19T09:13:47;16.60;99.90
20081;DHT22;10200;49.232;9.222;2023-10-19T09:16:15;16.80;99.90
20081;DHT22;10200;49.232;9.222;2023-10-19T09:18:40;16.80;99.90
20081;DHT22;10200;49.232;9.222;2023-10-19T09:21:07;17.00;99.90
20081;DHT22;10200;49.232;9.222;2023-10-19T09:23:37;17.20;99.90
20081;DHT22;10200;49.232;9.222;2023-10-19T09:26:04;17.40;99.90
20081;DHT22;10200;49.232;9.222;2023-10-19T09:28:36;17.40;99.90
20081;DHT22;10200;49.232;9.222;2023-10-19T09:31:03;17.60;99.90
20081;DHT22;10200;49.232;9.222;2023-10-19T09:33:31;17.60;99.90
20081;DHT22;10200;49.232;9.222;2023-10-19T09:36:00;17.60;99.90
20081;DHT22;10200;49.232;9.222;2023-10-19T09:38:27;17.50;99.90
20081;DHT22;10200;49.232;9.222;2023-10-19T09:40:54;17.60;99.90
20081;DHT22;10200;49.232;9.222;2023-10-19T09:43:41;17.60;99.90
20081;DHT22;10200;49.232;9.222;2023-10-19T09:46:08;17.70;99.90
20081;DHT22;10200;49.232;9.222;2023-10-19T09:48:40;17.70;99.90
20081;DHT22;10200;49.232;9.222;2023-10-19T09:51:07;17.70;99.90
20081;DHT22;10200;49.232;9.222;2023-10-19T09:53:34;17.70;99.90
20081;DHT22;10200;49.232;9.222;2023-10-19T09:56:02;17.80;99.90
20081;DHT22;10200;49.232;9.222;2023-10-19T09:58:36;17.70;99.90
20081;DHT22;10200;49.232;9.222;2023-10-19T10:01:03;17.70;99.90
20081;DHT22;10200;49.232;9.222;2023-10-19T10:03:46;17.60;99.90
20081;DHT22;10200;49.232;9.222;2023-10-19T10:06:14;17.60;99.90
20081;DHT22;10200;49.232;9.222;2023-10-19T10:08:44;17.70;99.90
20081;DHT22;10200;49.232;9.222;2023-10-19T10:11:24;17.80;99.90
20081;DHT22;10200;49.232;9.222;2023-10-19T10:13:50;17.80;99.90
20081;DHT22;10200;49.232;9.222;2023-10-19T10:16:24;17.80;99.90
20081;DHT22;10200;49.232;9.222;2023-10-19T10:18:55;17.90;99.90
20081;DHT22;10200;49.232;9.222;2023-10-19T10:21:22;17.90;99.90
20081;DHT22;10200;49.232;9.222;2023-10-19T10:23:57;17.90;99.90
20081;DHT22;10200;49.232;9.222;2023-10-19T10:26:28;18.00;99.90
20081;DHT22;10200;49.232;9.222;2023-10-19T10:29:10;18.00;99.90
20081;DHT22;10200;49.232;9.222;2023-10-19T10:31:47;18.10;99.90
20081;DHT22;10200;49.232;9.222;2023-10-19T10:34:51;18.10;99.90
20081;DHT22;10200;49.232;9.222;2023-10-19T10:37:17;18.10;99.90
20081;DHT22;10200;49.232;9.222;2023-10-19T10:39:43;18.10;99.90
20081;DHT22;10200;49.232;9.222;2023-10-19T10:42:10;18.10;99.90
20081;DHT22;10200;49.232;9.222;2023-10-19T10:47:15;18.10;99.90
20081;DHT22;10200;49.232;9.222;2023-10-19T10:49:51;18.10;99.90
20081;DHT22;10200;49.232;9.222;2023-10-19T10:52:34;18.10;99.90
20081;DHT22;10200;49.232;9.222;2023-10-19T10:55:10;18.10;99.90
20081;DHT22;10200;49.232;9.222;2023-10-19T10:57:40;18.00;99.90
20081;DHT22;10200;49.232;9.222;2023-10-19T11:00:12;18.00;99.90
20081;DHT22;10200;49.232;9.222;2023-10-19T11:02:43;18.00;99.90
20081;DHT22;10200;49.232;9.222;2023-10-19T11:05:16;17.90;99.90
20081;DHT22;10200;49.232;9.222;2023-10-19T11:10:28;18.00;99.90
20081;DHT22;10200;49.232;9.222;2023-10-19T11:13:04;18.00;99.90
20081;DHT22;10200;49.232;9.222;2023-10-19T11:15:33;18.00;99.90
20081;DHT22;10200;49.232;9.222;2023-10-19T11:17:59;18.00;99.90
20081;DHT22;10200;49.232;9.222;2023-10-19T11:20:26;18.00;99.90
20081;DHT22;10200;49.232;9.222;2023-10-19T11:22:53;18.10;99.90
20081;DHT22;10200;49.232;9.222;2023-10-19T11:25:26;18.10;99.90
20081;DHT22;10200;49.232;9.222;2023-10-19T11:27:57;18.10;99.90
20081;DHT22;10200;49.232;9.222;2023-10-19T11:30:27;18.20;99.90
20081;DHT22;10200;49.232;9.222;2023-10-19T11:32:54;18.30;99.90
20081;DHT22;10200;49.232;9.222;2023-10-19T11:35:27;18.20;99.90
20081;DHT22;10200;49.232;9.222;2023-10-19T11:37:58;18.20;99.90
20081;DHT22;10200;49.232;9.222;2023-10-19T11:40:27;18.20;99.90
20081;DHT22;10200;49.232;9.222;2023-10-19T11:42:54;18.20;99.90
20081;DHT22;10200;49.232;9.222;2023-10-19T11:45:23;18.10;99.90
20081;DHT22;10200;49.232;9.222;2023-10-19T11:47:49;18.00;99.90
20081;DHT22;10200;49.232;9.222;2023-10-19T11:50:16;17.90;99.90
20081;DHT22;10200;49.232;9.222;2023-10-19T11:52:43;17.90;99.90
20081;DHT22;10200;49.232;9.222;2023-10-19T11:55:09;17.90;99.90
20081;DHT22;10200;49.232;9.222;2023-10-19T11:57:35;17.80;99.90
20081;DHT22;10200;49.232;9.222;2023-10-19T12:00:03;17.70;99.90
20081;DHT22;10200;49.232;9.222;2023-10-19T12:02:36;17.60;99.90
20081;DHT22;10200;49.232;9.222;2023-10-19T12:05:04;17.60;99.90
20081;DHT22;10200;49.232;9.222;2023-10-19T12:07:29;17.60;99.90
20081;DHT22;10200;49.232;9.222;2023-10-19T12:09:58;17.50;99.90
20081;DHT22;10200;49.232;9.222;2023-10-19T12:12:23;17.60;99.90
20081;DHT22;10200;49.232;9.222;2023-10-19T12:14:49;17.60;99.90
20081;DHT22;10200;49.232;9.222;2023-10-19T12:17:15;17.70;99.90
20081;DHT22;10200;49.232;9.222;2023-10-19T12:19:43;17.70;99.90
20081;DHT22;10200;49.232;9.222;2023-10-19T12:22:08;17.70;99.90
20081;DHT22;10200;49.232;9.222;2023-10-19T12:24:34;17.70;99.90
20081;DHT22;10200;49.232;9.222;2023-10-19T12:26:59;17.70;99.90
20081;DHT22;10200;49.232;9.222;2023-10-19T12:29:25;17.60;99.90
20081;DHT22;10200;49.232;9.222;2023-10-19T12:31:50;17.60;99.90
20081;DHT22;10200;49.232;9.222;2023-10-19T12:34:16;17.50;99.90
20081;DHT22;10200;49.232;9.222;2023-10-19T12:36:42;17.50;99.90
20081;DHT22;10200;49.232;9.222;2023-10-19T12:39:10;17.50;99.90
20081;DHT22;10200;49.232;9.222;2023-10-19T12:41:41;17.40;99.90
20081;DHT22;10200;49.232;9.222;2023-10-19T12:44:07;17.40;99.90
20081;DHT22;10200;49.232;9.222;2023-10-19T12:46:37;17.40;99.90
20081;DHT22;10200;49.232;9.222;2023-10-19T12:49:05;17.40;99.90
20081;DHT22;10200;49.232;9.222;2023-10-19T12:51:39;17.40;99.90
20081;DHT22;10200;49.232;9.222;2023-10-19T12:54:07;17.40;99.90
20081;DHT22;10200;49.232;9.222;2023-10-19T12:56:35;17.30;99.90
20081;DHT22;10200;49.232;9.222;2023-10-19T12:59:01;17.30;99.90
20081;DHT22;10200;49.232;9.222;2023-10-19T13:01:26;17.30;99.90
20081;DHT22;10200;49.232;9.222;2023-10-19T13:03:53;17.30;99.90
20081;DHT22;10200;49.232;9.222;2023-10-19T13:06:19;17.30;99.90
20081;DHT22;10200;49.232;9.222;2023-10-19T13:08:44;17.30;99.90
20081;DHT22;10200;49.232;9.222;2023-10-19T13:11:10;17.30;99.90
20081;DHT22;10200;49.232;9.222;2023-10-19T13:13:39;17.30;99.90
20081;DHT22;10200;49.232;9.222;2023-10-19T13:16:05;17.30;99.90
20081;DHT22;10200;49.232;9.222;2023-10-19T13:18:35;17.30;99.90
20081;DHT22;10200;49.232;9.222;2023-10-19T13:21:01;17.40;99.90
20081;DHT22;10200;49.232;9.222;2023-10-19T13:23:33;17.40;99.90
20081;DHT22;10200;49.232;9.222;2023-10-19T13:25:59;17.50;99.90
20081;DHT22;10200;49.232;9.222;2023-10-19T13:28:40;17.50;99.90
20081;DHT22;10200;49.232;9.222;2023-10-19T13:31:08;17.60;99.90
20081;DHT22;10200;49.232;9.222;2023-10-19T13:33:35;17.60;99.90
20081;DHT22;10200;49.232;9.222;2023-10-19T13:36:01;17.60;99.90
20081;DHT22;10200;49.232;9.222;2023-10-19T13:38:27;17.60;99.90
20081;DHT22;10200;49.232;9.222;2023-10-19T13:40:53;17.50;99.90
20081;DHT22;10200;49.232;9.222;2023-10-19T13:43:19;17.60;99.90
20081;DHT22;10200;49.232;9.222;2023-10-19T13:45:46;17.50;99.90
20081;DHT22;10200;49.232;9.222;2023-10-19T13:48:13;17.50;99.90
20081;DHT22;10200;49.232;9.222;2023-10-19T13:50:46;17.50;99.90
20081;DHT22;10200;49.232;9.222;2023-10-19T13:53:14;17.50;99.90
20081;DHT22;10200;49.232;9.222;2023-10-19T13:55:41;17.50;99.90
20081;DHT22;10200;49.232;9.222;2023-10-19T13:58:06;17.40;99.90
20081;DHT22;10200;49.232;9.222;2023-10-19T14:00:32;17.40;99.90
20081;DHT22;10200;49.232;9.222;2023-10-19T14:03:08;17.40;99.90
20081;DHT22;10200;49.232;9.222;2023-10-19T14:05:42;17.40;99.90
20081;DHT22;10200;49.232;9.222;2023-10-19T14:08:15;17.40;99.90
20081;DHT22;10200;49.232;9.222;2023-10-19T14:10:41;17.40;99.90
20081;DHT22;10200;49.232;9.222;2023-10-19T14:13:10;17.40;99.90
20081;DHT22;10200;49.232;9.222;2023-10-19T14:15:40;17.40;99.90
20081;DHT22;10200;49.232;9.222;2023-10-19T14:18:05;17.40;99.90
20081;DHT22;10200;49.232;9.222;2023-10-19T14:20:31;17.40;99.90
20081;DHT22;10200;49.232;9.222;2023-10-19T14:23:00;17.40;99.90
20081;DHT22;10200;49.232;9.222;2023-10-19T14:25:25;17.40;99.90
20081;DHT22;10200;49.232;9.222;2023-10-19T14:27:54;17.30;99.90
20081;DHT22;10200;49.232;9.222;2023-10-19T14:30:24;17.30;99.90
20081;DHT22;10200;49.232;9.222;2023-10-19T14:32:50;17.20;99.90
20081;DHT22;10200;49.232;9.222;2023-10-19T14:35:19;17.20;99.90
20081;DHT22;10200;49.232;9.222;2023-10-19T14:37:47;17.20;99.90
20081;DHT22;10200;49.232;9.222;2023-10-19T14:40:16;17.30;99.90
20081;DHT22;10200;49.232;9.222;2023-10-19T14:42:42;17.20;99.90
20081;DHT22;10200;49.232;9.222;2023-10-19T14:45:17;17.30;99.90
20081;DHT22;10200;49.232;9.222;2023-10-19T14:47:50;17.20;99.90
20081;DHT22;10200;49.232;9.222;2023-10-19T14:50:23;17.20;99.90
20081;DHT22;10200;49.232;9.222;2023-10-19T14:52:50;17.20;99.90
20081;DHT22;10200;49.232;9.222;2023-10-19T14:55:20;17.20;99.90
20081;DHT22;10200;49.232;9.222;2023-10-19T14:57:48;17.10;99.90
20081;DHT22;10200;49.232;9.222;2023-10-19T15:00:21;17.10;99.90
20081;DHT22;10200;49.232;9.222;2023-10-19T15:02:49;17.00;99.90
20081;DHT22;10200;49.232;9.222;2023-10-19T15:05:16;17.00;99.90
20081;DHT22;10200;49.232;9.222;2023-10-19T15:07:43;17.00;99.90
20081;DHT22;10200;49.232;9.222;2023-10-19T15:10:10;17.00;99.90
20081;DHT22;10200;49.232;9.222;2023-10-19T15:12:40;16.90;99.90
20081;DHT22;10200;49.232;9.222;2023-10-19T15:15:09;16.90;99.90
20081;DHT22;10200;49.232;9.222;2023-10-19T15:17:39;16.80;99.90
20081;DHT22;10200;49.232;9.222;2023-10-19T15:20:06;16.80;99.90
20081;DHT22;10200;49.232;9.222;2023-10-19T15:22:33;16.70;99.90
20081;DHT22;10200;49.232;9.222;2023-10-19T15:24:59;16.70;99.90
20081;DHT22;10200;49.232;9.222;2023-10-19T15:27:25;16.70;99.90
20081;DHT22;10200;49.232;9.222;2023-10-19T15:29:51;16.70;99.90
20081;DHT22;10200;49.232;9.222;2023-10-19T15:32:16;16.60;99.90
20081;DHT22;10200;49.232;9.222;2023-10-19T15:34:42;16.60;99.90
20081;DHT22;10200;49.232;9.222;2023-10-19T15:37:08;16.60;99.90
20081;DHT22;10200;49.232;9.222;2023-10-19T15:39:33;16.60;99.90
20081;DHT22;10200;49.232;9.222;2023-10-19T15:42:00;16.60;99.90
20081;DHT22;10200;49.232;9.222;2023-10-19T15:44:26;16.60;99.90
20081;DHT22;10200;49.232;9.222;2023-10-19T15:46:52;16.60;99.90
20081;DHT22;10200;49.232;9.222;2023-10-19T15:49:18;16.60;99.90